Airfield :
LOGIN :

Register | Disclaimer

   EN    FR    IT 

 










Legend :    VFR   Marginal VFR   IFR   Intensive IFR   Very Intensive IFR
Visi :
Ceiling :
>= 8 km
>= 3000ft
5 to 8 km
1000 to 3000 ft
1500m to 5 km
500 to 1000 ft
800 to 1500m
200 to 500 ft
< 800m
< 200 ft
Symbols :   Thunderstorms  Fog  Heavy snow  Heavy precipitations  Wind > 20 kt
SIGMETs :     Misc.  Thunderstorms  Icing  Turbulence  Mountain Waves  Volcanic Ashes







- Airport Elevation : 1249 ft


ETSN - Neuburg AB

CURRENT METAR :
  • 281020Z 24004KT 9999 -RA FEW030 SCT080 23/15 Q1003 RESHRA BLU+

EXPIRED METARs :
  • 280932Z 36005KT 9999 -RA FEW020 SCT080 BKN120 21/16 Q1003 BLU
  • 280926Z 27007KT 6000 SHRA FEW020 SCT080 BKN120 21/15 Q1003 WHT
  • 280820Z 27007KT 9999 FEW012 BKN110 21/17 Q1003 BLU
  • 280736Z 26005KT 9999 FEW012 SCT020 BKN100 19/17 Q1003 BLU
  • 280728Z 25005KT 9999 -RA FEW008 SCT012 BKN020 19/17 Q1003 WHT

TAF TAF ETSN
Valid from the 28 at 08:00 until the 28 at 17:00 UTC


280720Z 2808/2817 25005KT 8000 NSW SCT020 BKN100
TEMPO 2808/2817 25010KT 4000 -SHRA SCT010 BKN030
PROB30 2810/2817 06015G25KT 3000 TSRA SCT010 BKN020CB BY ETGL
No reported NOTAMs for that airfield.
1 SIGMET reported for the München FIR (EDMM) :
 
Embedded thunderstorms
EDMM SIGMET 2 VALID 281004/281200 EDZM
EDMM MUNCHEN FIR EMBD TS OBS WI N5155 E01209 - N5130 E01330 - N5030 E01245 - N5100 E01040 - N5123 E01027 - N5152 E01112 - N5155 E01209 TOP FL400 MOV N NC=



MET'MAP, your aeronautical weather chart ! - Copyright ORBIFLY December 2007 - Disclaimer

ORBIFLY MET'MAP TEAM :

Programming & Development : Alexandra Zaïnal
Concept & Development : Baudouin d'Aumeries
Co-Development & Prog : Marc-Olivier Méhu
Technical & hardware support : Manuel Goepfert

Contact : metmap@orbifly.com




SOURCES & CREDITS :

   NOAA